Time;durP1;ratioP1;P1;durP2;ratioP2;P2;SDS_P1;SDS_P2;PMS_P1;PMS_P2;Temp;Humidity;BMP_temperature;BMP_pressure;BME280_temperature;BME280_humidity;BME280_pressure;Samples;Min_cycle;Max_cycle;Signal;HPM_P1;HPM_P2
2023/03/26 00:01:25;;;;;;;17.10;3.95;;;;;;;;;;5034814;28;20785;-76
2023/03/26 00:03:52;;;;;;;15.60;4.10;;;;;;;;;;5018258;28;20052;-77
2023/03/26 00:06:21;;;;;;;14.60;4.40;;;;;;;;;;5017806;28;20156;-77
2023/03/26 00:08:47;;;;;;;17.08;4.32;;;;;;;;;;5018165;28;20056;-76
2023/03/26 00:11:14;;;;;;;17.42;4.28;;;;;;;;;;5013883;28;20049;-77
2023/03/26 00:13:42;;;;;;;13.82;3.55;;;;;;;;;;5040516;28;20038;-76
2023/03/26 00:16:09;;;;;;;17.45;4.07;;;;;;;;;;5036411;28;20034;-76
2023/03/26 00:18:36;;;;;;;14.52;3.65;;;;;;;;;;5032518;28;20045;-76
2023/03/26 00:21:04;;;;;;;21.90;4.28;;;;;;;;;;5046052;28;20098;-76
2023/03/26 00:23:31;;;;;;;18.33;4.28;;;;;;;;;;5024187;28;20048;-76
2023/03/26 00:25:59;;;;;;;14.30;3.70;;;;;;;;;;5023240;28;20496;-76
2023/03/26 00:28:26;;;;;;;13.43;3.60;;;;;;;;;;5017948;28;20056;-77
2023/03/26 00:31:03;;;;;;;15.90;4.47;;;;;;;;;;5036710;28;20120;-76
2023/03/26 00:33:30;;;;;;;20.40;3.95;;;;;;;;;;5034218;28;20053;-76
2023/03/26 00:35:57;;;;;;;20.13;4.13;;;;;;;;;;5032144;28;20124;-76
2023/03/26 00:38:24;;;;;;;21.30;4.15;;;;;;;;;;5030453;28;20556;-77
2023/03/26 00:40:51;;;;;;;15.02;3.67;;;;;;;;;;5038155;28;20049;-76
2023/03/26 00:43:18;;;;;;;25.83;5.60;;;;;;;;;;5020738;28;20119;-76
2023/03/26 00:45:45;;;;;;;17.25;3.78;;;;;;;;;;5015616;28;20048;-76
2023/03/26 00:48:11;;;;;;;16.42;4.35;;;;;;;;;;5032976;28;20088;-76
2023/03/26 00:50:38;;;;;;;15.82;4.22;;;;;;;;;;5020123;28;20049;-76
2023/03/26 00:53:04;;;;;;;22.92;4.43;;;;;;;;;;5027074;28;20128;-76
2023/03/26 00:55:33;;;;;;;19.13;3.92;;;;;;;;;;5033740;28;20049;-76
2023/03/26 00:58:00;;;;;;;20.38;5.00;;;;;;;;;;5029082;28;20045;-76
2023/03/26 01:00:35;;;;;;;18.63;4.63;;;;;;;;;;5035665;28;20045;-76
2023/03/26 01:03:03;;;;;;;20.48;4.68;;;;;;;;;;5032675;28;20048;-76
2023/03/26 01:05:34;;;;;;;14.20;4.50;;;;;;;;;;5012531;28;20057;-76
2023/03/26 01:08:13;;;;;;;15.98;4.25;;;;;;;;;;5033198;28;20044;-76
2023/03/26 01:10:40;;;;;;;18.70;4.75;;;;;;;;;;5015987;28;20099;-76
2023/03/26 01:13:06;;;;;;;16.15;4.00;;;;;;;;;;5011514;28;20053;-76
2023/03/26 01:15:32;;;;;;;15.68;4.10;;;;;;;;;;5035355;28;20060;-76
2023/03/26 01:17:58;;;;;;;20.90;4.75;;;;;;;;;;5038630;28;20490;-77
2023/03/26 01:20:29;;;;;;;21.98;4.97;;;;;;;;;;5009400;28;20087;-76
2023/03/26 01:22:57;;;;;;;16.10;4.75;;;;;;;;;;5031564;28;20452;-76
2023/03/26 01:25:26;;;;;;;18.83;4.80;;;;;;;;;;5034554;28;20053;-76
2023/03/26 01:27:55;;;;;;;19.45;4.88;;;;;;;;;;5031848;28;20037;-76
2023/03/26 01:30:21;;;;;;;20.60;5.53;;;;;;;;;;5022039;28;20095;-76
2023/03/26 01:32:51;;;;;;;17.55;4.68;;;;;;;;;;5019419;28;20045;-76
2023/03/26 01:35:26;;;;;;;22.02;4.22;;;;;;;;;;5038338;28;20045;-76
2023/03/26 01:38:09;;;;;;;20.17;4.60;;;;;;;;;;5014673;28;20045;-76
2023/03/26 01:40:48;;;;;;;16.65;4.13;;;;;;;;;;5019077;28;20045;-76
2023/03/26 01:43:26;;;;;;;14.68;4.50;;;;;;;;;;5019891;28;20120;-76
2023/03/26 01:45:53;;;;;;;21.45;4.22;;;;;;;;;;5013813;28;20041;-76
2023/03/26 01:48:19;;;;;;;16.38;3.92;;;;;;;;;;5025630;28;20146;-76
2023/03/26 01:50:52;;;;;;;14.93;4.10;;;;;;;;;;5016298;28;20037;-76
2023/03/26 01:53:18;;;;;;;18.55;4.45;;;;;;;;;;5030223;28;20489;-76
2023/03/26 01:55:54;;;;;;;23.58;4.88;;;;;;;;;;5020736;28;20050;-76
2023/03/26 01:58:39;;;;;;;22.35;5.32;;;;;;;;;;5028284;28;20048;-76
2023/03/26 02:01:11;;;;;;;16.63;4.38;;;;;;;;;;5034870;28;20128;-76
2023/03/26 02:03:44;;;;;;;20.90;4.57;;;;;;;;;;5013534;28;20045;-76
2023/03/26 02:06:14;;;;;;;19.50;4.37;;;;;;;;;;5030614;28;20048;-76
2023/03/26 02:09:01;;;;;;;27.05;5.43;;;;;;;;;;5035978;28;20051;-76
2023/03/26 02:11:27;;;;;;;18.65;4.95;;;;;;;;;;5032315;28;20095;-76
2023/03/26 02:13:53;;;;;;;20.45;4.68;;;;;;;;;;5010130;28;20126;-76
2023/03/26 02:16:20;;;;;;;21.77;5.10;;;;;;;;;;5018263;28;20110;-76
2023/03/26 02:18:50;;;;;;;20.08;4.38;;;;;;;;;;5022717;28;20045;-76
2023/03/26 02:21:20;;;;;;;18.85;4.53;;;;;;;;;;5027090;28;20050;-76
2023/03/26 02:23:48;;;;;;;15.00;4.32;;;;;;;;;;5029621;28;20079;-76
2023/03/26 02:26:15;;;;;;;18.25;4.20;;;;;;;;;;5012263;28;20041;-76
2023/03/26 02:28:41;;;;;;;14.05;3.20;;;;;;;;;;5013908;28;20067;-76
2023/03/26 02:31:12;;;;;;;18.67;3.88;;;;;;;;;;5029102;28;20057;-76
2023/03/26 02:33:39;;;;;;;14.13;3.65;;;;;;;;;;5024125;28;20057;-76
2023/03/26 02:36:07;;;;;;;12.70;3.72;;;;;;;;;;5040272;28;20049;-76
2023/03/26 02:38:33;;;;;;;18.70;3.85;;;;;;;;;;5017647;28;20041;-76
2023/03/26 02:41:00;;;;;;;18.52;4.00;;;;;;;;;;5013059;28;20053;-76
2023/03/26 02:43:26;;;;;;;12.57;3.72;;;;;;;;;;5023031;28;20048;-76
2023/03/26 02:45:52;;;;;;;16.02;4.32;;;;;;;;;;5041097;28;21724;-76
2023/03/26 02:48:19;;;;;;;15.45;4.05;;;;;;;;;;5043951;28;20048;-76
2023/03/26 02:50:45;;;;;;;18.55;4.80;;;;;;;;;;5036337;28;20040;-76
2023/03/26 02:53:12;;;;;;;13.15;4.60;;;;;;;;;;5014810;28;20497;-76
2023/03/26 02:55:38;;;;;;;18.45;4.32;;;;;;;;;;5033269;28;20057;-76
2023/03/26 02:58:05;;;;;;;18.58;4.15;;;;;;;;;;5013895;28;20050;-76
2023/03/26 03:00:32;;;;;;;17.00;4.40;;;;;;;;;;5023618;28;20080;-76
2023/03/26 03:02:58;;;;;;;14.52;4.03;;;;;;;;;;5024542;28;20561;-76
2023/03/26 03:05:30;;;;;;;10.65;4.05;;;;;;;;;;5028412;28;20384;-76
2023/03/26 03:07:56;;;;;;;10.80;3.53;;;;;;;;;;5018596;28;20494;-76
2023/03/26 03:10:23;;;;;;;15.73;4.22;;;;;;;;;;5047428;28;20114;-76
2023/03/26 03:12:49;;;;;;;15.75;4.18;;;;;;;;;;5030530;28;20049;-76
2023/03/26 03:15:15;;;;;;;15.05;4.18;;;;;;;;;;5022493;28;20052;-76
2023/03/26 03:17:41;;;;;;;14.20;4.03;;;;;;;;;;5019478;28;20135;-76
2023/03/26 03:20:08;;;;;;;12.77;4.18;;;;;;;;;;5032267;28;20045;-76
2023/03/26 03:22:35;;;;;;;20.90;4.78;;;;;;;;;;5022065;28;20051;-76
2023/03/26 03:25:01;;;;;;;12.15;3.75;;;;;;;;;;5021639;28;20053;-77
2023/03/26 03:27:27;;;;;;;16.33;3.67;;;;;;;;;;5029611;28;20107;-76
2023/03/26 03:29:54;;;;;;;15.35;3.55;;;;;;;;;;5040657;28;20110;-77
2023/03/26 03:32:21;;;;;;;16.67;4.30;;;;;;;;;;5021313;28;20103;-76
2023/03/26 03:34:49;;;;;;;18.90;5.13;;;;;;;;;;5017482;28;20139;-76
2023/03/26 03:37:16;;;;;;;19.40;5.35;;;;;;;;;;5034037;28;20526;-76
2023/03/26 03:39:42;;;;;;;18.98;4.47;;;;;;;;;;5039824;28;20050;-77
2023/03/26 03:42:08;;;;;;;21.80;4.93;;;;;;;;;;5034619;28;20037;-76
2023/03/26 03:44:34;;;;;;;19.77;4.75;;;;;;;;;;5027349;28;20049;-76
2023/03/26 03:47:00;;;;;;;17.15;4.28;;;;;;;;;;5015882;28;20059;-76
2023/03/26 03:49:26;;;;;;;15.27;3.80;;;;;;;;;;5038754;28;20037;-76
2023/03/26 03:51:52;;;;;;;14.10;4.03;;;;;;;;;;5015304;28;20057;-77
2023/03/26 03:54:18;;;;;;;13.38;3.80;;;;;;;;;;5021291;28;20061;-76
2023/03/26 03:56:46;;;;;;;21.77;4.82;;;;;;;;;;5023520;28;20049;-76
2023/03/26 03:59:12;;;;;;;18.95;4.22;;;;;;;;;;5014003;28;20548;-76
2023/03/26 04:01:41;;;;;;;14.38;4.15;;;;;;;;;;5031074;28;20045;-76
2023/03/26 04:04:07;;;;;;;22.30;4.90;;;;;;;;;;5014011;28;20045;-76
2023/03/26 04:06:34;;;;;;;16.77;3.90;;;;;;;;;;5025638;28;20056;-76
2023/03/26 04:09:00;;;;;;;20.90;5.35;;;;;;;;;;5037499;28;20083;-76
2023/03/26 04:11:26;;;;;;;19.98;4.28;;;;;;;;;;5032287;28;20073;-76
2023/03/26 04:13:52;;;;;;;14.75;4.25;;;;;;;;;;5034771;28;20080;-76
2023/03/26 04:16:18;;;;;;;22.10;4.00;;;;;;;;;;5020027;28;20577;-76
2023/03/26 04:18:45;;;;;;;18.25;4.63;;;;;;;;;;5029291;28;20072;-76
2023/03/26 04:21:14;;;;;;;21.55;4.43;;;;;;;;;;5034179;28;20484;-76
2023/03/26 04:23:44;;;;;;;16.00;4.28;;;;;;;;;;5032806;28;20045;-76
2023/03/26 04:26:12;;;;;;;17.10;4.60;;;;;;;;;;5032236;28;20053;-76
2023/03/26 04:28:41;;;;;;;14.15;4.30;;;;;;;;;;5032867;28;20072;-77
2023/03/26 04:31:10;;;;;;;13.23;3.70;;;;;;;;;;5018995;28;20045;-77
2023/03/26 04:33:38;;;;;;;14.95;3.70;;;;;;;;;;5032177;28;20116;-76
2023/03/26 04:36:04;;;;;;;13.93;3.63;;;;;;;;;;5015946;28;20093;-76
2023/03/26 04:38:32;;;;;;;10.15;3.40;;;;;;;;;;5018477;28;20049;-77
2023/03/26 04:40:59;;;;;;;19.00;4.28;;;;;;;;;;5033667;28;20094;-76
2023/03/26 04:43:26;;;;;;;19.25;4.07;;;;;;;;;;5033601;28;20132;-76
2023/03/26 04:45:52;;;;;;;15.95;4.13;;;;;;;;;;5020241;28;20089;-76
2023/03/26 04:48:19;;;;;;;14.93;3.95;;;;;;;;;;5016655;28;20055;-76
2023/03/26 04:50:46;;;;;;;14.40;4.82;;;;;;;;;;5019909;28;20061;-76
2023/03/26 04:53:14;;;;;;;17.25;4.20;;;;;;;;;;5014625;28;20064;-76
2023/03/26 04:55:47;;;;;;;15.65;3.72;;;;;;;;;;5015748;28;20128;-76
2023/03/26 04:58:13;;;;;;;16.27;3.75;;;;;;;;;;5013497;28;20039;-76
2023/03/26 05:00:40;;;;;;;18.38;4.97;;;;;;;;;;5014312;28;20080;-76
2023/03/26 05:03:09;;;;;;;17.90;3.75;;;;;;;;;;5038591;28;20066;-76
2023/03/26 05:05:35;;;;;;;12.40;3.83;;;;;;;;;;5037780;28;20041;-77
2023/03/26 05:08:01;;;;;;;22.52;5.25;;;;;;;;;;5018860;28;20045;-76
2023/03/26 05:10:27;;;;;;;13.77;4.15;;;;;;;;;;5030868;28;20037;-76
2023/03/26 05:12:53;;;;;;;16.13;3.80;;;;;;;;;;5021525;28;20455;-76
2023/03/26 05:15:19;;;;;;;14.52;4.25;;;;;;;;;;5035998;28;20080;-76
2023/03/26 05:17:45;;;;;;;14.13;4.82;;;;;;;;;;5024877;28;20135;-76
2023/03/26 05:20:22;;;;;;;12.73;4.15;;;;;;;;;;5046595;28;20447;-76
2023/03/26 05:22:49;;;;;;;14.88;4.55;;;;;;;;;;5045712;28;20486;-76
2023/03/26 05:25:15;;;;;;;13.70;4.28;;;;;;;;;;5042880;28;20034;-76
2023/03/26 05:27:42;;;;;;;15.25;3.78;;;;;;;;;;5017291;28;20068;-76
2023/03/26 05:30:08;;;;;;;15.50;4.05;;;;;;;;;;5027820;28;20087;-76
2023/03/26 05:32:35;;;;;;;15.75;3.78;;;;;;;;;;5022565;28;20471;-76
2023/03/26 05:35:01;;;;;;;13.02;4.35;;;;;;;;;;5040475;28;20504;-76
2023/03/26 05:37:29;;;;;;;16.15;4.00;;;;;;;;;;5032233;28;20098;-76
2023/03/26 05:39:56;;;;;;;14.73;4.30;;;;;;;;;;5016692;28;20102;-76
2023/03/26 05:42:22;;;;;;;15.30;4.25;;;;;;;;;;5034440;28;20386;-76
2023/03/26 05:44:49;;;;;;;19.63;4.28;;;;;;;;;;5043953;28;20037;-76
2023/03/26 05:47:15;;;;;;;18.13;4.70;;;;;;;;;;5015828;28;20083;-76
2023/03/26 05:49:41;;;;;;;15.60;4.00;;;;;;;;;;5011766;28;20038;-76
2023/03/26 05:52:07;;;;;;;15.77;3.38;;;;;;;;;;5013127;28;20045;-76
2023/03/26 05:54:33;;;;;;;19.67;4.40;;;;;;;;;;5012451;28;20512;-76
2023/03/26 05:56:59;;;;;;;11.43;3.47;;;;;;;;;;5012573;28;20492;-77
2023/03/26 05:59:25;;;;;;;19.50;4.45;;;;;;;;;;5027070;28;21113;-76
2023/03/26 06:01:53;;;;;;;14.82;3.83;;;;;;;;;;5028189;28;20088;-76
2023/03/26 06:04:19;;;;;;;10.55;3.90;;;;;;;;;;5032214;28;20052;-77
2023/03/26 06:06:45;;;;;;;12.40;3.58;;;;;;;;;;5012362;28;20180;-76
2023/03/26 06:09:12;;;;;;;13.52;3.30;;;;;;;;;;5015009;28;20041;-77
2023/03/26 06:11:38;;;;;;;16.05;4.03;;;;;;;;;;5021440;28;20412;-77
2023/03/26 06:14:04;;;;;;;9.45;3.55;;;;;;;;;;5032779;28;20401;-76
2023/03/26 06:16:30;;;;;;;21.40;4.65;;;;;;;;;;5016472;28;20048;-77
2023/03/26 06:18:56;;;;;;;12.18;3.83;;;;;;;;;;5013576;28;20045;-76
2023/03/26 06:21:22;;;;;;;13.57;3.72;;;;;;;;;;5037481;28;20523;-77
2023/03/26 06:23:50;;;;;;;14.82;3.75;;;;;;;;;;5036302;28;20037;-77
2023/03/26 06:26:16;;;;;;;17.13;3.53;;;;;;;;;;5015737;28;20065;-76
2023/03/26 06:28:42;;;;;;;18.98;4.00;;;;;;;;;;5022490;28;20041;-77
2023/03/26 06:31:08;;;;;;;13.70;3.72;;;;;;;;;;5018996;28;20076;-77
2023/03/26 06:33:35;;;;;;;9.93;3.58;;;;;;;;;;5039187;28;20041;-76
2023/03/26 06:36:00;;;;;;;15.05;3.70;;;;;;;;;;5032450;28;20041;-76
2023/03/26 06:38:27;;;;;;;16.15;3.60;;;;;;;;;;5012955;28;20559;-76
2023/03/26 06:40:53;;;;;;;16.15;3.83;;;;;;;;;;5017404;28;20050;-76
2023/03/26 06:43:19;;;;;;;21.05;3.97;;;;;;;;;;5025714;28;20056;-76
2023/03/26 06:45:45;;;;;;;15.38;3.97;;;;;;;;;;5036640;28;20041;-76
2023/03/26 06:48:11;;;;;;;15.55;3.40;;;;;;;;;;5018707;28;20044;-76
2023/03/26 06:50:37;;;;;;;13.93;3.63;;;;;;;;;;5015025;28;20034;-76
2023/03/26 06:53:03;;;;;;;17.30;4.05;;;;;;;;;;5031253;28;20041;-77
2023/03/26 06:55:30;;;;;;;13.20;3.55;;;;;;;;;;5035985;28;20084;-76
2023/03/26 06:57:57;;;;;;;16.25;4.32;;;;;;;;;;5037849;28;20041;-77
2023/03/26 07:00:23;;;;;;;20.08;4.13;;;;;;;;;;5016822;28;20053;-76
2023/03/26 07:02:49;;;;;;;17.38;3.85;;;;;;;;;;5034119;28;20048;-76
2023/03/26 07:05:15;;;;;;;17.38;3.60;;;;;;;;;;5018166;28;20041;-76
2023/03/26 07:07:41;;;;;;;14.05;3.58;;;;;;;;;;5031206;28;20071;-76
2023/03/26 07:10:07;;;;;;;18.83;3.85;;;;;;;;;;5036547;28;20037;-76
2023/03/26 07:12:41;;;;;;;14.43;3.55;;;;;;;;;;5026292;28;20045;-76
2023/03/26 07:15:09;;;;;;;12.02;3.47;;;;;;;;;;5027815;28;20045;-76
2023/03/26 07:17:36;;;;;;;11.25;3.45;;;;;;;;;;5043483;28;20370;-77
2023/03/26 07:20:02;;;;;;;14.25;3.88;;;;;;;;;;5047833;28;20041;-76
2023/03/26 07:22:29;;;;;;;14.00;3.47;;;;;;;;;;5023721;28;20037;-77
2023/03/26 07:24:55;;;;;;;13.18;3.33;;;;;;;;;;5029928;28;20037;-76
2023/03/26 07:27:37;;;;;;;8.55;3.10;;;;;;;;;;5047526;28;20049;-76
2023/03/26 07:30:08;;;;;;;9.90;3.25;;;;;;;;;;5046695;28;20044;-76
2023/03/26 07:32:53;;;;;;;13.90;3.83;;;;;;;;;;5036329;28;20041;-76
2023/03/26 07:35:34;;;;;;;15.27;3.95;;;;;;;;;;5050996;28;20186;-77
2023/03/26 07:38:15;;;;;;;10.27;3.25;;;;;;;;;;5021409;28;20056;-77
2023/03/26 07:40:42;;;;;;;15.55;3.50;;;;;;;;;;5047804;28;20053;-77
2023/03/26 07:43:23;;;;;;;12.82;3.40;;;;;;;;;;5016554;28;20520;-76
2023/03/26 07:45:50;;;;;;;15.10;3.22;;;;;;;;;;5027336;28;20484;-76
2023/03/26 07:48:20;;;;;;;10.75;3.30;;;;;;;;;;5027884;28;20493;-76
2023/03/26 07:50:47;;;;;;;10.55;3.22;;;;;;;;;;5037707;28;20048;-77
2023/03/26 07:53:13;;;;;;;10.82;3.08;;;;;;;;;;5015591;28;20400;-76
2023/03/26 07:55:58;;;;;;;11.50;3.75;;;;;;;;;;5042988;28;20057;-77
2023/03/26 07:58:33;;;;;;;10.82;3.22;;;;;;;;;;5027582;28;20080;-77
2023/03/26 08:01:09;;;;;;;10.70;3.10;;;;;;;;;;5037489;28;20045;-77
2023/03/26 08:03:38;;;;;;;10.43;3.33;;;;;;;;;;5047318;28;20493;-77
2023/03/26 08:06:07;;;;;;;13.52;2.80;;;;;;;;;;5022998;28;20179;-77
2023/03/26 08:08:45;;;;;;;8.93;3.58;;;;;;;;;;5035545;28;20069;-77
2023/03/26 08:11:17;;;;;;;12.50;3.47;;;;;;;;;;5040392;28;20055;-77
2023/03/26 08:14:02;;;;;;;13.30;3.05;;;;;;;;;;5028354;28;20088;-77
2023/03/26 08:16:36;;;;;;;9.30;2.70;;;;;;;;;;5021191;28;20516;-77
2023/03/26 08:19:09;;;;;;;17.08;3.70;;;;;;;;;;5040205;28;20072;-76
2023/03/26 08:21:36;;;;;;;;;;;;;;;;;;5042332;28;20049;-76
2023/03/26 08:24:21;;;;;;;10.57;3.25;;;;;;;;;;5034908;28;19921;-77
2023/03/26 08:27:01;;;;;;;12.30;3.08;;;;;;;;;;5030821;28;20051;-76
2023/03/26 08:29:48;;;;;;;9.50;3.22;;;;;;;;;;5033811;28;20087;-77
2023/03/26 08:32:17;;;;;;;14.15;3.55;;;;;;;;;;5009570;28;20127;-76
2023/03/26 08:34:44;;;;;;;8.40;2.90;;;;;;;;;;5024941;28;20421;-77
2023/03/26 08:37:11;;;;;;;9.68;2.95;;;;;;;;;;5046530;28;20056;-76
2023/03/26 08:39:38;;;;;;;11.68;3.30;;;;;;;;;;5037795;28;20045;-77
2023/03/26 08:42:07;;;;;;;13.63;3.30;;;;;;;;;;5038439;28;20493;-76
2023/03/26 08:44:33;;;;;;;13.65;3.70;;;;;;;;;;5016427;28;20116;-76
2023/03/26 08:47:11;;;;;;;12.20;3.15;;;;;;;;;;5034434;28;20476;-76
2023/03/26 08:49:50;;;;;;;12.10;3.92;;;;;;;;;;5024595;28;20060;-77
2023/03/26 08:52:20;;;;;;;16.20;3.33;;;;;;;;;;5029136;28;20040;-77
2023/03/26 08:55:05;;;;;;;11.73;2.90;;;;;;;;;;5014784;28;20057;-77
2023/03/26 08:57:37;;;;;;;18.92;4.28;;;;;;;;;;5013751;28;20493;-77
2023/03/26 09:00:25;;;;;;;10.32;3.58;;;;;;;;;;5025304;28;20038;-77
2023/03/26 09:02:57;;;;;;;10.38;3.20;;;;;;;;;;5000591;28;20069;-77
2023/03/26 09:05:36;;;;;;;12.43;3.10;;;;;;;;;;5016565;28;20041;-77
2023/03/26 09:08:18;;;;;;;8.75;2.90;;;;;;;;;;5012720;28;20041;-82
2023/03/26 09:10:44;;;;;;;11.00;3.25;;;;;;;;;;5021700;28;20052;-80
2023/03/26 09:13:16;;;;;;;17.38;3.55;;;;;;;;;;5016180;28;20038;-79
2023/03/26 09:15:45;;;;;;;7.90;2.85;;;;;;;;;;5024139;28;20049;-79
2023/03/26 09:18:14;;;;;;;7.32;3.05;;;;;;;;;;5018285;28;20444;-78
2023/03/26 09:20:41;;;;;;;15.07;3.13;;;;;;;;;;5018078;28;20091;-79
2023/03/26 09:23:07;;;;;;;11.20;3.17;;;;;;;;;;5024272;28;20484;-77
2023/03/26 09:25:42;;;;;;;10.80;3.20;;;;;;;;;;5015224;28;20037;-78
2023/03/26 09:28:11;;;;;;;11.35;3.20;;;;;;;;;;5008990;28;20567;-76
2023/03/26 09:30:49;;;;;;;10.73;3.47;;;;;;;;;;5002491;28;20041;-79
2023/03/26 09:33:32;;;;;;;8.50;2.60;;;;;;;;;;5005068;28;20092;-77
2023/03/26 09:36:01;;;;;;;12.68;3.25;;;;;;;;;;5008743;28;22427;-77
2023/03/26 09:38:36;;;;;;;11.30;3.22;;;;;;;;;;5008464;28;20048;-78
2023/03/26 09:41:08;;;;;;;11.02;3.10;;;;;;;;;;5009477;28;20458;-78
2023/03/26 09:43:41;;;;;;;9.32;3.22;;;;;;;;;;5013430;28;20088;-77
2023/03/26 09:46:26;;;;;;;11.05;2.85;;;;;;;;;;5005394;28;20111;-77
2023/03/26 09:49:10;;;;;;;8.73;3.42;;;;;;;;;;5009570;28;20489;-77
2023/03/26 09:51:54;;;;;;;7.85;3.05;;;;;;;;;;5010055;28;20100;-78
2023/03/26 09:54:35;;;;;;;9.10;2.85;;;;;;;;;;5008827;28;20057;-77
2023/03/26 09:57:13;;;;;;;9.98;3.38;;;;;;;;;;5010793;28;20141;-78
2023/03/26 10:00:01;;;;;;;8.15;2.60;;;;;;;;;;5021402;28;20042;-78
2023/03/26 10:02:27;;;;;;;11.57;2.83;;;;;;;;;;5014635;28;20053;-78
2023/03/26 10:04:58;;;;;;;11.30;3.17;;;;;;;;;;5027865;28;20129;-78
2023/03/26 10:07:39;;;;;;;7.47;2.80;;;;;;;;;;5011482;28;20049;-77
2023/03/26 10:10:18;;;;;;;12.88;3.28;;;;;;;;;;5010939;28;20385;-79
2023/03/26 10:13:07;;;;;;;6.88;2.92;;;;;;;;;;5015284;28;20136;-78
2023/03/26 10:15:56;;;;;;;11.30;3.00;;;;;;;;;;5012834;28;20073;-78
2023/03/26 10:18:41;;;;;;;8.43;3.05;;;;;;;;;;5018003;28;20049;-77
2023/03/26 10:21:16;;;;;;;8.48;2.95;;;;;;;;;;5008122;28;20046;-78
2023/03/26 10:23:51;;;;;;;10.80;2.97;;;;;;;;;;5020816;28;20052;-78
2023/03/26 10:26:32;;;;;;;9.98;2.70;;;;;;;;;;5020441;28;20122;-78
2023/03/26 10:29:17;;;;;;;13.43;3.17;;;;;;;;;;5033844;28;20037;-78
2023/03/26 10:31:45;;;;;;;14.13;3.10;;;;;;;;;;5016988;28;20045;-78
2023/03/26 10:34:33;;;;;;;12.70;4.18;;;;;;;;;;5011521;28;20038;-78
2023/03/26 10:37:12;;;;;;;10.63;3.00;;;;;;;;;;5010196;28;20045;-78
2023/03/26 10:39:47;;;;;;;10.77;3.50;;;;;;;;;;5018866;28;20053;-78
2023/03/26 10:42:18;;;;;;;12.07;3.20;;;;;;;;;;5018301;28;20056;-78
2023/03/26 10:44:56;;;;;;;10.80;3.22;;;;;;;;;;5011696;28;20045;-77
2023/03/26 10:47:41;;;;;;;7.82;2.88;;;;;;;;;;5009770;28;20053;-78
2023/03/26 10:50:16;;;;;;;13.65;3.53;;;;;;;;;;5019066;28;20050;-78
2023/03/26 10:53:01;;;;;;;13.55;3.50;;;;;;;;;;5016821;28;20087;-78
2023/03/26 10:55:27;;;;;;;12.82;3.08;;;;;;;;;;5023757;28;20527;-78
2023/03/26 10:57:55;;;;;;;10.82;3.08;;;;;;;;;;5033458;28;20095;-78
2023/03/26 11:00:25;;;;;;;9.80;3.03;;;;;;;;;;5036117;28;20041;-78
2023/03/26 11:03:00;;;;;;;10.65;3.08;;;;;;;;;;5033728;28;20124;-78
2023/03/26 11:05:26;;;;;;;9.52;2.72;;;;;;;;;;5016245;28;20055;-78
2023/03/26 11:08:01;;;;;;;9.25;2.78;;;;;;;;;;5041732;28;20033;-78
2023/03/26 11:10:46;;;;;;;7.95;2.65;;;;;;;;;;5015987;28;20072;-77
2023/03/26 11:13:33;;;;;;;8.38;2.67;;;;;;;;;;5021740;28;20128;-78
2023/03/26 11:16:04;;;;;;;9.75;2.88;;;;;;;;;;5019014;28;20083;-77
2023/03/26 11:18:42;;;;;;;14.20;3.10;;;;;;;;;;5022068;28;20489;-79
2023/03/26 11:21:19;;;;;;;11.07;2.95;;;;;;;;;;5038137;28;20088;-78
2023/03/26 11:23:45;;;;;;;8.45;2.88;;;;;;;;;;5019739;28;20191;-78
2023/03/26 11:26:31;;;;;;;6.93;2.58;;;;;;;;;;5019366;28;20131;-78
2023/03/26 11:29:14;;;;;;;10.55;2.80;;;;;;;;;;5012064;28;20045;-78
2023/03/26 11:31:44;;;;;;;9.32;2.30;;;;;;;;;;5024598;28;20504;-78
2023/03/26 11:34:12;;;;;;;10.27;2.70;;;;;;;;;;5031709;28;20057;-78
2023/03/26 11:36:41;;;;;;;12.23;3.40;;;;;;;;;;5011414;28;20041;-77
2023/03/26 11:39:12;;;;;;;7.35;2.92;;;;;;;;;;5036401;28;20041;-77
2023/03/26 11:41:38;;;;;;;6.50;2.40;;;;;;;;;;5027460;28;20128;-77
2023/03/26 11:44:20;;;;;;;6.10;2.55;;;;;;;;;;5047133;28;20041;-78
2023/03/26 11:46:46;;;;;;;8.20;2.70;;;;;;;;;;5024485;28;20469;-77
2023/03/26 11:49:16;;;;;;;11.40;3.42;;;;;;;;;;5014718;28;20061;-77
2023/03/26 11:51:42;;;;;;;6.47;2.40;;;;;;;;;;5041426;28;20128;-77
2023/03/26 11:54:10;;;;;;;11.43;2.50;;;;;;;;;;5027690;28;20053;-77
2023/03/26 11:56:55;;;;;;;4.43;2.22;;;;;;;;;;5041977;28;20037;-77
2023/03/26 11:59:29;;;;;;;6.22;2.30;;;;;;;;;;5022097;28;20045;-77
2023/03/26 12:02:14;;;;;;;6.95;2.28;;;;;;;;;;5019072;28;20647;-77
2023/03/26 12:04:42;;;;;;;8.02;2.65;;;;;;;;;;5016138;28;20042;-77
2023/03/26 12:07:26;;;;;;;6.57;2.35;;;;;;;;;;5041379;28;20044;-77
2023/03/26 12:09:55;;;;;;;7.28;2.40;;;;;;;;;;5037334;28;20142;-77
2023/03/26 12:12:24;;;;;;;9.02;2.60;;;;;;;;;;5043200;28;20072;-77
2023/03/26 12:14:50;;;;;;;7.53;2.67;;;;;;;;;;5020724;28;20068;-78
2023/03/26 12:17:33;;;;;;;11.23;2.53;;;;;;;;;;5023075;28;20046;-77
2023/03/26 12:20:00;;;;;;;7.25;2.45;;;;;;;;;;5025298;28;20426;-78
2023/03/26 12:22:29;;;;;;;8.48;2.65;;;;;;;;;;5037215;28;20044;-77
2023/03/26 12:25:03;;;;;;;9.07;2.33;;;;;;;;;;5029012;28;20037;-77
2023/03/26 12:27:31;;;;;;;12.52;3.08;;;;;;;;;;5035375;28;20072;-77
2023/03/26 12:30:03;;;;;;;8.75;2.63;;;;;;;;;;5023196;28;20124;-77
2023/03/26 12:32:34;;;;;;;9.75;2.15;;;;;;;;;;5016626;28;20049;-77
2023/03/26 12:35:05;;;;;;;10.02;2.63;;;;;;;;;;5036592;28;20052;-78
2023/03/26 12:37:34;;;;;;;12.60;2.80;;;;;;;;;;5030728;28;20049;-77
2023/03/26 12:40:19;;;;;;;11.45;2.90;;;;;;;;;;5036341;28;20128;-77
2023/03/26 12:42:51;;;;;;;9.75;2.88;;;;;;;;;;5036185;28;20052;-77
2023/03/26 12:45:19;;;;;;;11.52;3.00;;;;;;;;;;5025641;28;20046;-77
2023/03/26 12:47:45;;;;;;;6.70;2.20;;;;;;;;;;5012109;28;20132;-77
2023/03/26 12:50:13;;;;;;;11.77;3.38;;;;;;;;;;5031117;28;20049;-78
2023/03/26 12:52:52;;;;;;;8.85;2.95;;;;;;;;;;5014337;28;20045;-77
2023/03/26 12:55:50;;;;;;;6.60;2.60;;;;;;;;;;5029545;28;20087;-77
2023/03/26 12:58:16;;;;;;;10.35;2.60;;;;;;;;;;4973947;28;20062;-77
2023/03/26 13:00:54;;;;;;;4.78;2.30;;;;;;;;;;5029119;28;20049;-77
2023/03/26 13:03:28;;;;;;;11.38;2.92;;;;;;;;;;5008923;28;20488;-77
2023/03/26 13:06:00;;;;;;;11.80;2.72;;;;;;;;;;5031902;28;20049;-76
2023/03/26 13:08:45;;;;;;;7.55;2.70;;;;;;;;;;5012220;28;20497;-77
2023/03/26 13:11:19;;;;;;;7.40;2.30;;;;;;;;;;5011618;28;20045;-77
2023/03/26 13:14:12;;;;;;;10.40;2.65;;;;;;;;;;5026947;28;20399;-77
2023/03/26 13:16:38;;;;;;;8.07;2.20;;;;;;;;;;4984067;28;20052;-77
2023/03/26 13:19:33;;;;;;;5.80;2.50;;;;;;;;;;5010856;28;20048;-77
2023/03/26 13:22:00;;;;;;;8.15;2.65;;;;;;;;;;4968705;28;20085;-76
2023/03/26 13:24:34;;;;;;;4.70;2.53;;;;;;;;;;5033288;28;20045;-77
2023/03/26 13:27:07;;;;;;;8.45;2.20;;;;;;;;;;5034139;28;20164;-77
2023/03/26 13:29:39;;;;;;;6.28;2.25;;;;;;;;;;5011008;28;20404;-77
2023/03/26 13:32:11;;;;;;;10.95;2.97;;;;;;;;;;5031163;28;20057;-77
2023/03/26 13:34:40;;;;;;;5.93;2.10;;;;;;;;;;5030131;28;20507;-77
2023/03/26 13:37:08;;;;;;;8.73;2.80;;;;;;;;;;5031214;28;20069;-77
2023/03/26 13:39:50;;;;;;;8.52;2.67;;;;;;;;;;5028614;28;20088;-77
2023/03/26 13:42:17;;;;;;;6.95;2.50;;;;;;;;;;5015229;28;20048;-76
2023/03/26 13:44:49;;;;;;;5.32;2.45;;;;;;;;;;5028033;28;20124;-76
2023/03/26 13:47:24;;;;;;;9.25;2.72;;;;;;;;;;5008176;28;20053;-77
2023/03/26 13:49:57;;;;;;;6.10;2.20;;;;;;;;;;5018951;28;20156;-76
2023/03/26 13:52:28;;;;;;;8.95;2.45;;;;;;;;;;5009970;28;20195;-76
2023/03/26 13:54:54;;;;;;;7.15;2.63;;;;;;;;;;5014285;28;20124;-77
2023/03/26 13:57:35;;;;;;;8.25;2.33;;;;;;;;;;5011310;28;20505;-78
2023/03/26 14:00:15;;;;;;;9.18;2.22;;;;;;;;;;5039320;28;20041;-78
2023/03/26 14:02:47;;;;;;;9.65;2.38;;;;;;;;;;5032771;28;20520;-78
2023/03/26 14:05:38;;;;;;;7.03;2.70;;;;;;;;;;5023366;28;20049;-78
2023/03/26 14:08:11;;;;;;;7.95;2.63;;;;;;;;;;5037072;28;20103;-77
2023/03/26 14:10:40;;;;;;;11.48;2.40;;;;;;;;;;5016769;28;20080;-76
2023/03/26 14:13:06;;;;;;;9.30;2.33;;;;;;;;;;5028588;28;20059;-77
2023/03/26 14:15:36;;;;;;;6.85;2.35;;;;;;;;;;5029429;28;20080;-79
2023/03/26 14:18:07;;;;;;;7.10;2.42;;;;;;;;;;5046662;28;20049;-79
2023/03/26 14:20:49;;;;;;;7.93;2.63;;;;;;;;;;5038600;28;20048;-79
2023/03/26 14:23:41;;;;;;;7.63;2.97;;;;;;;;;;5020717;28;20474;-78
2023/03/26 14:26:29;;;;;;;9.90;2.60;;;;;;;;;;5037838;28;20388;-78
2023/03/26 14:29:14;;;;;;;5.45;2.42;;;;;;;;;;5013870;28;20417;-75
2023/03/26 14:31:58;;;;;;;12.13;2.60;;;;;;;;;;5026650;28;20037;-78
2023/03/26 14:34:44;;;;;;;6.88;2.53;;;;;;;;;;5041626;28;20393;-77
2023/03/26 14:37:12;;;;;;;7.85;2.10;;;;;;;;;;5036522;28;20041;-79
2023/03/26 14:39:48;;;;;;;8.13;2.97;;;;;;;;;;5033365;28;20619;-77
2023/03/26 14:42:18;;;;;;;10.65;3.00;;;;;;;;;;5041119;28;20084;-76
2023/03/26 14:45:11;;;;;;;14.25;2.65;;;;;;;;;;5013395;28;20056;-77
2023/03/26 14:47:46;;;;;;;9.32;2.63;;;;;;;;;;5014476;28;20516;-77
2023/03/26 14:50:21;;;;;;;10.85;3.38;;;;;;;;;;5021839;28;20045;-77
2023/03/26 14:52:51;;;;;;;6.97;2.65;;;;;;;;;;5025460;28;20393;-77
2023/03/26 14:55:34;;;;;;;6.60;2.42;;;;;;;;;;5016485;28;20065;-77
2023/03/26 14:58:00;;;;;;;6.00;2.92;;;;;;;;;;5036971;28;20111;-77